logo
Rechercher aéroport 
image banner adimage banner adimage banner ad
image banner ad

EHS033 - Marknesse

Situé à , Netherlands

ICAO - , IATA -

Données fournies par Airmate  

Information générale

Coordonnées: N52°40'52" E5°55'32"
Élévation : feet MSL.
 
Voir autres Aéroports à Gelderland

Données opérationnelles

Special qualification required
Heure actuelle UTC:
Heure actuelle locale:
Météo à : EHLE - Lelystad/Lelystad ( 38 km )
METAR: EHLE 171525Z AUTO 28011KT 240V320 9999 FEW045/// 20/09 Q1012 NOSIG
TAF: TAF EHLE 171117Z 1712/1818 24010KT 9999 SCT030 BECMG 1717/1720 VRB02KT CAVOK PROB30 TEMPO 1802/1805 2000 BCFG BECMG 1814/1817 04007KT PROB40 TEMPO 1814/1818 5000 RA SHRA SCT045CB
Voir NOTAMs / SUP AIP / TFR affectant cet aéroport [VIEW]
Fréquences de communication: [VIEW]

Pistes:

Coordonnées de l'aéroport

Adresse: Netherlands

Vue satellite de EHS033